Arklow Mill — EIJD9 — position and weather

sailwx.info

Track history (hours):
 
Tides and Currents Weather Stations Pressure Air Temp Water Temp Dewpoint Dewpoint Depression Visibility Wind Speed Wind Dir Waves Ship Positions

Arklow Mill

Last reported at 2017-Mar-24 23:31 UTC. Time now 2017-Mar-25 00:07 UTC.
Position N 51°05' E 003°44'.

Length 137 m; draft 8.4 m.

Type: Ship. MMSI: 250002022.

Date/timePositionNaut miles runAvg speedWind from/ knotsBaromVisibWave heightAir tempDewpointWater temp
2017-Mar-24 23:31N 51°05' E 003°44'0 0.0
2017-Mar-24 22:32N 51°05' E 003°44'0 0.0
2017-Mar-24 21:29N 51°05' E 003°44'0 0.0
2017-Mar-24 20:33N 51°05' E 003°44'0 0.0
2017-Mar-24 19:33N 51°05' E 003°44'0 0.0
2017-Mar-24 18:32N 51°05' E 003°44'0 0.0
2017-Mar-24 17:33N 51°05' E 003°44'0 0.0
2017-Mar-24 16:33N 51°05' E 003°44'0 0.0
2017-Mar-24 15:33N 51°05' E 003°44'0 0.0
2017-Mar-24 14:31N 51°05' E 003°44'0 0.0
2017-Mar-24 13:32N 51°05' E 003°44'0 0.0
2017-Mar-24 12:32N 51°05' E 003°44'0 0.0
2017-Mar-24 11:25N 51°05' E 003°44'0 0.0
2017-Mar-24 10:33N 51°05' E 003°44'0 0.0
2017-Mar-24 09:32N 51°05' E 003°44'0 0.0
2017-Mar-24 08:32N 51°05' E 003°44'0 0.0
2017-Mar-24 07:28N 51°05' E 003°44'0 0.0
2017-Mar-24 06:31N 51°05' E 003°44'0 0.0
2017-Mar-24 05:32N 51°05' E 003°44'0 0.0
2017-Mar-24 04:28N 51°05' E 003°44'0 0.0
2017-Mar-24 03:33N 51°05' E 003°44'0 0.0
2017-Mar-24 02:31N 51°05' E 003°44'0 0.0
2017-Mar-24 01:33N 51°05' E 003°44'0 0.0
2017-Mar-24 00:33N 51°05' E 003°44'0 0.0
2017-Mar-23 23:25N 51°05' E 003°44'0 0.0
2017-Mar-23 22:34N 51°05' E 003°44'0 0.0
2017-Mar-23 21:33N 51°05' E 003°44'0 0.0
2017-Mar-23 20:32N 51°05' E 003°44'0 0.0
2017-Mar-23 19:28N 51°05' E 003°44'0 0.0
2017-Mar-23 18:33N 51°05' E 003°44'4 3.7
2017-Mar-23 17:33N 51°09' E 003°47'6 6.3
2017-Mar-23 16:33N 51°15' E 003°49'4 3.9
2017-Mar-23 15:33N 51°19' E 003°50'1 1.0
2017-Mar-23 14:33N 51°20' E 003°49'3 2.7
2017-Mar-23 13:33N 51°22' E 003°46'9 8.7
2017-Mar-23 12:33N 51°26' E 003°34'9 9.5
2017-Mar-23 11:33N 51°34' E 003°25'1211.5
2017-Mar-23 10:33N 51°44' E 003°15'3 3.1
2017-Mar-23 09:31N 51°46' E 003°18'0 0.1
2017-Mar-23 08:19N 51°46' E 003°17'0 0.1
2017-Mar-23 07:31N 51°46' E 003°17'0 0.0
2017-Mar-23 06:34N 51°46' E 003°17'0 0.0
2017-Mar-23 05:28N 51°46' E 003°17'0 0.0
2017-Mar-23 04:28N 51°46' E 003°17'0 0.0
2017-Mar-23 01:04N 51°46' E 003°17'0 0.0
2017-Mar-22 17:23N 51°46' E 003°17'215 9.7
2017-Mar-21 19:08N 54°01' E 007°56'610.2
2017-Mar-21 18:31N 54°01' E 008°06'9 8.9
2017-Mar-21 17:33N 53°60' E 008°21'1111.4
2017-Mar-21 16:34N 53°56' E 008°39'9 9.1
2017-Mar-21 15:33N 53°50' E 008°51'10 9.7
2017-Mar-21 14:33N 53°53' E 009°07'3 2.8
2017-Mar-21 13:33N 53°55' E 009°11'7 6.9
2017-Mar-21 12:33N 54°00' E 009°18'46 5.5
2017-Mar-21 04:13N 54°30' E 010°18'710.9
2017-Mar-21 03:33N 54°33' E 010°29'1110.9
2017-Mar-21 02:34N 54°35' E 010°48'1110.5
2017-Mar-21 01:33N 54°36' E 011°06'10 9.9
2017-Mar-21 00:33N 54°33' E 011°22'1010.0
2017-Mar-20 23:33N 54°29' E 011°37'19 9.7
2017-Mar-20 21:33N 54°27' E 012°11'1010.1
2017-Mar-20 20:34N 54°36' E 012°17'4411.0
2017-Mar-20 16:33N 54°56' E 013°25'1111.3
2017-Mar-20 15:33N 54°60' E 013°44'1111.4
2017-Mar-20 14:33N 55°04' E 014°02'1111.4
2017-Mar-20 13:33N 55°12' E 014°16'1211.6
2017-Mar-20 12:33N 55°22' E 014°28'1111.1
2017-Mar-20 11:33N 55°29' E 014°43'1110.9
2017-Mar-20 10:33N 55°34' E 014°60'1111.2
2017-Mar-20 09:33N 55°40' E 015°17'1111.3
2017-Mar-20 08:33N 55°45' E 015°34'1111.4
2017-Mar-20 07:33N 55°51' E 015°52'1211.9
2017-Mar-20 06:33N 55°57' E 016°10'1111.4
2017-Mar-20 05:33N 56°03' E 016°28'1111.4
2017-Mar-20 04:33N 56°09' E 016°45'  
2017-Mar-17 01:21N 56°10' E 017°03'1113.3
2017-Mar-17 00:32N 56°04' E 016°47'1313.0
2017-Mar-16 23:33N 55°58' E 016°27'1312.8
2017-Mar-16 22:33N 55°51' E 016°07'1312.8
2017-Mar-16 21:33N 55°45' E 015°48'1313.0
2017-Mar-16 20:33N 55°39' E 015°27'1313.1
2017-Mar-16 19:34N 55°33' E 015°07'1313.1
2017-Mar-16 18:33N 55°26' E 014°47'1312.9
2017-Mar-16 17:34N 55°17' E 014°31'1212.2
2017-Mar-16 16:33N 55°09' E 014°14'1312.8
2017-Mar-16 15:31N 55°10' E 013°51'2512.6
2017-Mar-16 13:33N 55°13' E 013°08'1312.6
2017-Mar-16 12:33N 55°16' E 012°47'9 9.3
2017-Mar-16 11:33N 55°24' E 012°39'1212.3
2017-Mar-16 10:33N 55°37' E 012°42'1312.8
2017-Mar-16 09:33N 55°49' E 012°42'1212.5
2017-Mar-16 08:34N 56°02' E 012°38'1312.9
2017-Mar-16 07:33N 56°10' E 012°21'2811.8
2017-Mar-16 05:13N 56°34' E 011°56'3111.8
2017-Mar-16 02:33N 57°04' E 011°40'1312.1
2017-Mar-16 01:30N 57°16' E 011°32'1112.0
2017-Mar-16 00:33N 57°27' E 011°25'1212.1
2017-Mar-15 23:32N 57°36' E 011°08'1211.9
2017-Mar-15 22:33N 57°43' E 010°51'1211.8
2017-Mar-15 21:31N 57°46' E 010°29'17012.2
2017-Mar-15 07:33N 55°46' E 006°48'1212.2
2017-Mar-15 06:32N 55°36' E 006°36'1512.3
2017-Mar-15 05:20N 55°23' E 006°25'  
Track history (hours):
 
Tides and Currents Weather Stations Pressure Air Temp Water Temp Dewpoint Dewpoint Depression Visibility Wind Speed Wind Dir Waves Ship Positions

Arklow Mill

Last reported at 2017-Mar-24 23:31 UTC. Time now 2017-Mar-25 00:07 UTC.
Position N 51°05' E 003°44'.

Length 137 m; draft 8.4 m.

Type: Ship. MMSI: 250002022.

Date/timePositionNaut miles runAvg speedWind from/ knotsBaromVisibWave heightAir tempDewpointWater temp
2017-Mar-24 23:31N 51°05' E 003°44'0 0.0
2017-Mar-24 22:32N 51°05' E 003°44'0 0.0
2017-Mar-24 21:29N 51°05' E 003°44'0 0.0
2017-Mar-24 20:33N 51°05' E 003°44'0 0.0
2017-Mar-24 19:33N 51°05' E 003°44'0 0.0
2017-Mar-24 18:32N 51°05' E 003°44'0 0.0
2017-Mar-24 17:33N 51°05' E 003°44'0 0.0
2017-Mar-24 16:33N 51°05' E 003°44'0 0.0
2017-Mar-24 15:33N 51°05' E 003°44'0 0.0
2017-Mar-24 14:31N 51°05' E 003°44'0 0.0
2017-Mar-24 13:32N 51°05' E 003°44'0 0.0
2017-Mar-24 12:32N 51°05' E 003°44'0 0.0
2017-Mar-24 11:25N 51°05' E 003°44'0 0.0
2017-Mar-24 10:33N 51°05' E 003°44'0 0.0
2017-Mar-24 09:32N 51°05' E 003°44'0 0.0
2017-Mar-24 08:32N 51°05' E 003°44'0 0.0
2017-Mar-24 07:28N 51°05' E 003°44'0 0.0
2017-Mar-24 06:31N 51°05' E 003°44'0 0.0
2017-Mar-24 05:32N 51°05' E 003°44'0 0.0
2017-Mar-24 04:28N 51°05' E 003°44'0 0.0
2017-Mar-24 03:33N 51°05' E 003°44'0 0.0
2017-Mar-24 02:31N 51°05' E 003°44'0 0.0
2017-Mar-24 01:33N 51°05' E 003°44'0 0.0
2017-Mar-24 00:33N 51°05' E 003°44'0 0.0
2017-Mar-23 23:25N 51°05' E 003°44'0 0.0
2017-Mar-23 22:34N 51°05' E 003°44'0 0.0
2017-Mar-23 21:33N 51°05' E 003°44'0 0.0
2017-Mar-23 20:32N 51°05' E 003°44'0 0.0
2017-Mar-23 19:28N 51°05' E 003°44'0 0.0
2017-Mar-23 18:33N 51°05' E 003°44'4 3.7
2017-Mar-23 17:33N 51°09' E 003°47'6 6.3
2017-Mar-23 16:33N 51°15' E 003°49'4 3.9
2017-Mar-23 15:33N 51°19' E 003°50'1 1.0
2017-Mar-23 14:33N 51°20' E 003°49'3 2.7
2017-Mar-23 13:33N 51°22' E 003°46'9 8.7
2017-Mar-23 12:33N 51°26' E 003°34'9 9.5
2017-Mar-23 11:33N 51°34' E 003°25'1211.5
2017-Mar-23 10:33N 51°44' E 003°15'3 3.1
2017-Mar-23 09:31N 51°46' E 003°18'0 0.1
2017-Mar-23 08:19N 51°46' E 003°17'0 0.1
2017-Mar-23 07:31N 51°46' E 003°17'0 0.0
2017-Mar-23 06:34N 51°46' E 003°17'0 0.0
2017-Mar-23 05:28N 51°46' E 003°17'0 0.0
2017-Mar-23 04:28N 51°46' E 003°17'0 0.0
2017-Mar-23 01:04N 51°46' E 003°17'0 0.0
2017-Mar-22 17:23N 51°46' E 003°17'215 9.7
2017-Mar-21 19:08N 54°01' E 007°56'610.2
2017-Mar-21 18:31N 54°01' E 008°06'9 8.9
2017-Mar-21 17:33N 53°60' E 008°21'1111.4
2017-Mar-21 16:34N 53°56' E 008°39'9 9.1
2017-Mar-21 15:33N 53°50' E 008°51'10 9.7
2017-Mar-21 14:33N 53°53' E 009°07'3 2.8
2017-Mar-21 13:33N 53°55' E 009°11'7 6.9
2017-Mar-21 12:33N 54°00' E 009°18'46 5.5
2017-Mar-21 04:13N 54°30' E 010°18'710.9
2017-Mar-21 03:33N 54°33' E 010°29'1110.9
2017-Mar-21 02:34N 54°35' E 010°48'1110.5
2017-Mar-21 01:33N 54°36' E 011°06'10 9.9
2017-Mar-21 00:33N 54°33' E 011°22'1010.0
2017-Mar-20 23:33N 54°29' E 011°37'19 9.7
2017-Mar-20 21:33N 54°27' E 012°11'1010.1
2017-Mar-20 20:34N 54°36' E 012°17'4411.0
2017-Mar-20 16:33N 54°56' E 013°25'1111.3
2017-Mar-20 15:33N 54°60' E 013°44'1111.4
2017-Mar-20 14:33N 55°04' E 014°02'1111.4
2017-Mar-20 13:33N 55°12' E 014°16'1211.6
2017-Mar-20 12:33N 55°22' E 014°28'1111.1
2017-Mar-20 11:33N 55°29' E 014°43'1110.9
2017-Mar-20 10:33N 55°34' E 014°60'1111.2
2017-Mar-20 09:33N 55°40' E 015°17'1111.3
2017-Mar-20 08:33N 55°45' E 015°34'1111.4
2017-Mar-20 07:33N 55°51' E 015°52'1211.9
2017-Mar-20 06:33N 55°57' E 016°10'1111.4
2017-Mar-20 05:33N 56°03' E 016°28'1111.4
2017-Mar-20 04:33N 56°09' E 016°45'  
2017-Mar-17 01:21N 56°10' E 017°03'1113.3
2017-Mar-17 00:32N 56°04' E 016°47'1313.0
2017-Mar-16 23:33N 55°58' E 016°27'1312.8
2017-Mar-16 22:33N 55°51' E 016°07'1312.8
2017-Mar-16 21:33N 55°45' E 015°48'1313.0
2017-Mar-16 20:33N 55°39' E 015°27'1313.1
2017-Mar-16 19:34N 55°33' E 015°07'1313.1
2017-Mar-16 18:33N 55°26' E 014°47'1312.9
2017-Mar-16 17:34N 55°17' E 014°31'1212.2
2017-Mar-16 16:33N 55°09' E 014°14'1312.8
2017-Mar-16 15:31N 55°10' E 013°51'2512.6
2017-Mar-16 13:33N 55°13' E 013°08'1312.6
2017-Mar-16 12:33N 55°16' E 012°47'9 9.3
2017-Mar-16 11:33N 55°24' E 012°39'1212.3
2017-Mar-16 10:33N 55°37' E 012°42'1312.8
2017-Mar-16 09:33N 55°49' E 012°42'1212.5
2017-Mar-16 08:34N 56°02' E 012°38'1312.9
2017-Mar-16 07:33N 56°10' E 012°21'2811.8
2017-Mar-16 05:13N 56°34' E 011°56'3111.8
2017-Mar-16 02:33N 57°04' E 011°40'1312.1
2017-Mar-16 01:30N 57°16' E 011°32'1112.0
2017-Mar-16 00:33N 57°27' E 011°25'1212.1
2017-Mar-15 23:32N 57°36' E 011°08'1211.9
2017-Mar-15 22:33N 57°43' E 010°51'1211.8
2017-Mar-15 21:31N 57°46' E 010°29'17012.2
2017-Mar-15 07:33N 55°46' E 006°48'1212.2
2017-Mar-15 06:32N 55°36' E 006°36'1512.3
2017-Mar-15 05:20N 55°23' E 006°25'  

Dump ship's entire track history